Flight Track Log - Related Links

Times and Time Zones

All times are in EDT time to prevent confusion due to time zone crossing. See the N27990 flight status page for this flight to view local times or setup timezone preferences in your user account.

Time Position Orientation Groundspeed Altitude Reporting Facility
EDT Latitude Longitude Course Direction KTS MPH feet Rate Location/Type
Fri 09:54:20 PM 26.4092 -77.4772 277° West 169 194 7,700  Level Miami Center
Fri 09:55:21 PM 26.3981 -77.5197 254° West 141 162 8,000 197 Climbing Miami Center
Fri 09:56:22 PM 26.3958 -77.5656 267° West 143 165 8,100  Climbing Miami Center
Fri 09:57:23 PM 26.3869 -77.6147 259° West 154 177 8,000 -49 Descending Miami Center
Fri 09:58:00 PM 26.5026 -77.2897 277° West  Level FlightAware Approximate
Fri 09:58:24 PM 26.3733 -77.6619 252° West 158 182 8,000  Level Miami Center
Fri 09:59:00 PM 26.5064 -77.3239 277° West  Level FlightAware Approximate
Fri 09:59:25 PM 26.3589 -77.7111 252° West 160 184 8,000  Level Miami Center
Fri 10:00:26 PM 26.3414 -77.7606 248° West 166 191 8,000  Level Miami Center
Fri 10:01:27 PM 26.3236 -77.8217 252° West 168 193 8,000  Level Miami Center
Fri 10:02:28 PM 26.3069 -77.8722 250° West 169 194 8,000  Level Miami Center
Fri 10:03:29 PM 26.2944 -77.9236 255° West 169 194 8,000  Level Miami Center
Fri 10:04:30 PM 26.2839 -77.9711 256° West 169 194 8,000  Level Miami Center
Fri 10:10:11 PM 26.2117 -78.2639 253° West 189 217 8,000  Level Miami Center
Fri 10:11:12 PM 26.2017 -78.3161 258° West 173 199 8,000  Level Miami Center
Fri 10:12:13 PM 26.1878 -78.3669 253° West 173 199 8,000  Level Miami Center
Fri 10:13:00 PM 26.2298 -78.2565 253° West  Level FlightAware Approximate
Fri 10:13:14 PM 26.1678 -78.4236 249° West 173 199 8,000  Level Miami Center
Fri 10:16:19 PM 26.1256 -78.5811 255° West 186 214 8,000  Level Miami Center
Fri 10:17:21 PM 26.1111 -78.6328 253° West 180 207 8,000  Level Miami Center
Fri 10:18:21 PM 26.0964 -78.6836 252° West 177 204 8,000  Level Miami Center
Fri 10:19:21 PM 26.0825 -78.7347 253° West 177 204 8,000  Level Miami Center
Fri 10:20:21 PM 26.0708 -78.7872 256° West 177 204 8,000  Level Miami Center
Fri 10:21:24 PM 26.0583 -78.8392 255° West 177 204 8,000  Level Miami Center
Fri 10:22:24 PM 26.0450 -78.8869 253° West 176 203 8,000  Level Miami Center
Fri 10:23:27 PM 26.0292 -78.9408 252° West 205 236 8,000  Level Miami Center
Fri 10:24:28 PM 26.0217 -79.0022 262° West 179 206 8,000  Level Miami Center
Fri 10:25:51 PM 26.0006 -79.0708 251° West 120 138 8,000  Level Miami Center
Fri 10:26:54 PM 25.9856 -79.1256 253° West 173 199 8,000 -48 Level Miami Center
Fri 10:27:55 PM 25.9742 -79.1756 256° West 170 196 7,900 -450 Descending Miami Center
Fri 10:28:54 PM 25.9606 -79.2308 255° West 182 209 7,100 -590 Descending Miami Center
Fri 10:29:57 PM 25.9422 -79.2858 250° West 189 217 6,700 -595 Descending Miami Center
Fri 10:30:45 PM 25.9325 -79.3375 258° West 201 231 6,000 -800 Descending Miami Center
Fri 10:30:57 PM 25.9297 -79.3450 248° West 190 219 5,900 -507 Descending Miami Center
Fri 10:31:56 PM 25.9144 -79.4044 254° West 198 228 5,400 -553 Descending Miami Center
Fri 10:32:13 PM 25.9089 -79.4214 250° West 194 223 5,200 -667 Descending Miami Center
Fri 10:32:59 PM 25.8972 -79.4669 254° West 195 224 4,700 -505 Descending Miami Center
Fri 10:34:00 PM 25.8814 -79.5189 251° West 198 228 4,300 -527 Descending Miami Center
Fri 10:34:30 PM 25.8783 -79.5536 264° West 183 211 3,900 -393 Descending Miami Center
Fri 10:35:01 PM 25.8822 -79.5733 282° West 182 209 3,900  Level Miami Center
Fri 10:35:19 PM 25.8928 -79.5939 300° West 176 203 3,900  Level Miami Center
Fri 10:36:02 PM 25.9033 -79.6211 293° West 176 203 3,900  Level Miami Center
Fri 10:36:14 PM 25.9089 -79.6392 289° West 168 193 3,900  Level Miami Center
Fri 10:37:03 PM 25.9189 -79.6700 290° West 171 197 3,900  Level Miami Center
Fri 10:37:21 PM 25.9267 -79.6914 292° West 165 190 3,900  Level Miami Center
Fri 10:38:03 PM 25.9356 -79.7178 291° West 169 194 3,900  Level Miami Center
Fri 10:38:27 PM 25.9444 -79.7458 289° West 167 192 3,900  Level Miami Center
Fri 10:39:04 PM 25.9511 -79.7661 290° West 168 193 3,900  Level Miami Center
Fri 10:39:22 PM 25.9606 -79.7911 293° West 168 193 3,900  Level Miami Center
Fri 10:40:05 PM 25.9661 -79.8147 285° West 168 193 3,900  Level Miami Center
Fri 10:40:29 PM 25.9700 -79.8450 278° West 164 189 3,900  Level Miami Center
Fri 10:41:03 PM 25.9728 -79.8756 276° West 167 192 3,900  Level Miami Center
Fri 10:41:30 PM 25.9753 -79.8964 278° West 165 190 3,900  Level Miami Center
Fri 10:42:04 PM 25.9808 -79.9256 282° West 167 192 3,900  Level Miami Center
Fri 10:42:25 PM 25.9831 -79.9408 279° West 165 190 3,900  Level Miami Center
Fri 10:43:07 PM 25.9869 -79.9753 277° West 165 190 3,900  Level Miami Center
Fri 10:43:23 PM 25.9883 -79.9922 275° West 163 188 3,900  Level Miami Center
Fri 10:44:08 PM 25.9925 -80.0244 278° West 165 190 3,900  Level Miami Center
Fri 10:44:20 PM 25.9939 -80.0367 277° West 160 184 3,900 -98 Level Miami Center
Fri 10:45:09 PM 25.9983 -80.0733 278° West 164 189 3,800 -411 Descending Miami Center
Fri 10:45:33 PM 26.0006 -80.0975 276° West 169 194 3,400 -700 Descending Miami Center
Fri 10:46:09 PM 26.0036 -80.1258 277° West 167 192 3,100 -632 Descending Miami Center
Fri 10:46:30 PM 26.0056 -80.1511 275° West 175 201 2,800 -590 Descending Miami Center
Fri 10:47:10 PM 26.0094 -80.1792 279° West 173 199 2,500 -517 Descending Miami Center
Fri 10:47:28 PM 26.0111 -80.1981 276° West 176 203 2,300 -600 Descending Miami Center
Fri 10:48:10 PM 26.0336 -80.2231 315° West 186 214 1,900 -500 Descending Miami Center
Fri 10:48:40 PM 26.0617 -80.2250 356° North 171 197 1,700 -787 Descending Miami Center
Fri 10:49:11 PM 26.0769 -80.2117 38° Northeast 182 209 1,100 -808 Descending Miami Center
Fri 10:49:32 PM 26.0789 -80.1869 85° East 148 170 1,000 -689 Descending Miami Center
Fri 10:50:12 PM 26.0758 -80.1578 97° East 148 170 400 -545 Descending Miami Center
Fri 10:50:27 PM 26.0772 -80.1450 83° East 141 162 500 500 Climbing Miami Center
Fri 10:51:12 PM 26.0831 -80.1269 70° East 126 145 900 348 Climbing Miami Center
Fri 10:51:36 PM 26.1011 -80.1331 343° North 131 151 900 98 Level Miami Center
Fri 10:52:13 PM 26.1022 -80.1517 274° West 135 155 1,000 98 Climbing Miami Center
Fri 10:52:37 PM 26.1047 -80.1750 277° West 139 160 1,000 -290 Level Miami Center
Fri 10:53:15 PM 26.0961 -80.1858 228° Southwest 124 143 700 -610 Descending Miami Center
Fri 10:53:36 PM 26.0789 -80.1847 177° South 106 122 400 -610 Descending Miami Center
Fri 10:54:14 PM 26.0758 -80.1733 107° East 93 107 100 -474 Descending Miami Center

Login

Don't have an account? Register now (free) for customized features, flight alerts, and more!